Historyczne dane pomiarowe

Dodano dane terminowe – wersja testowa.

Dane z okresu 1951-2019

Wersja bazy: 1.34 [2019-03-16, lista zmian], aktualizacja planowana na 2019-04-15

Dane meteo z obszaru Polski uzyskane na podstawie danych udostępnionych przez Instytut Meteorologii i Gospodarki Wodnej – Państwowy Instytut Badawczy.

 

Wybierz Datę:    

       

TemperaturaWilgotnośćZachmurzenieWiatrCiśnienieWidzialnośćZjawiska
 Data    tng td wb rh cc ccl cl cm ch dir g1 g2 mslp ppp      
1994-08-01 00:00:00 17.5--- 15.9 16.590wxwx0wx--1012.9 972.9 0.0---wx
1994-08-01 01:00:00 15.8--- 13.8 14.688wxwx0wx--1013.3 973.0----wx
1994-08-01 02:00:00 15.0--- 13.5 14.191wxwx0wx--1013.1 972.7----wx
1994-08-01 03:00:00 15.1--- 13.3 14.089wxwx0wx--1013.1 972.7----wx
1994-08-01 04:00:00 15.0--- 13.0 13.888wxwx0wx--1013.2 972.8----wx
1994-08-01 05:00:00 17.4--- 15.0 15.986wxwx0wx--1012.7 972.7----wx
1994-08-01 06:00:00 22.8--- 16.3 18.667wxwx0wx--1011.8 972.5 0.0---wx
1994-08-01 07:00:00 29.6--- 16.6 21.046wxwx4wx--1010.8 972.4----wx
1994-08-01 08:00:00 31.6--- 16.2 21.440wxwx6wx--1010.7 972.6----wx
1994-08-01 09:00:00 32.8--- 15.3 21.335wxwx6wx--1010.5 972.5----wx
1994-08-01 10:00:00 33.8--- 15.2 21.633wxwx5wx--1010.5 972.6----wx
1994-08-01 11:00:00 34.5--- 14.6 21.530wxwxwx5wx--1010.2 972.4----wx
1994-08-01 12:00:00 35.1--- 15.0 21.930wxwxwx5wx--1009.8 972.1 0.0---wx
1994-08-01 13:00:00 34.9--- 14.7 21.730wxwxwx4wx--1009.5 971.8----wx
1994-08-01 14:00:00 35.3--- 13.8 21.428wxwxwx5wx--1009.0 971.4----wx
1994-08-01 15:00:00 34.7--- 14.0 21.329wxwxwx3wx10-1008.9 971.2----wx
1994-08-01 16:00:00 34.2--- 14.1 21.230wxwxwx4wx--1008.7 971.0----wx
1994-08-01 17:00:00 33.0--- 14.3 20.932wxwx3wx--1008.9 971.0----wx
1994-08-01 18:00:00 28.3--- 17.2 20.951wxwx0wx--1009.8 971.3 0.0---wx
1994-08-01 19:00:00 25.6--- 17.1 20.059wxwx0wx--1010.7 971.8----wx
1994-08-01 20:00:00 22.0--- 15.7 18.068wxwx0wx--1011.8 972.4----wx
1994-08-01 21:00:00 20.0--- 15.7 17.376wxwx0wx--1012.2 972.5----wx
1994-08-01 22:00:00 18.6--- 14.6 16.177wxwx1wx--1012.6 972.7----wx
1994-08-01 23:00:00 17.0--- 14.0 15.283wxwx0wx--1012.9 972.8----wx

 

Źródłem pochodzenia danych jest Instytut Meteorologii i Gospodarki Wodnej – Państwowy Instytut Badawczy. Dane Instytutu Meteorologii i Gospodarki Wodnej – Państwowego Instytutu Badawczego zostały przetworzone.

Dane źródłowe można odnaleźć na stronie https://dane.imgw.pl